Time;durP1;ratioP1;P1;durP2;ratioP2;P2;SDS_P1;SDS_P2;PMS_P1;PMS_P2;Temp;Humidity;BMP_temperature;BMP_pressure;BME280_temperature;BME280_humidity;BME280_pressure;Samples;Min_cycle;Max_cycle;Signal;HPM_P1;HPM_P2
2022/07/02 00:02:23;;;;;;;7.13;6.53;;;;;;;;;;5068316;28;24430;-48
2022/07/02 00:04:52;;;;;;;7.13;6.63;;;;;;;;;;5061527;28;24415;-47
2022/07/02 00:07:17;;;;;;;6.90;6.40;;;;;;;;;;5067470;28;24426;-47
2022/07/02 00:09:42;;;;;;;6.70;6.20;;;;;;;;;;5056485;28;24785;-47
2022/07/02 00:12:09;;;;;;;6.77;6.27;;;;;;;;;;5058714;28;24544;-47
2022/07/02 00:14:34;;;;;;;5.90;5.40;;;;;;;;;;5058014;28;24466;-47
2022/07/02 00:17:00;;;;;;;6.00;5.60;;;;;;;;;;5068658;28;24458;-47
2022/07/02 00:19:25;;;;;;;5.82;5.32;;;;;;;;;;5057840;28;24430;-47
2022/07/02 00:21:51;;;;;;;5.60;5.20;;;;;;;;;;5060107;28;24534;-47
2022/07/02 00:24:17;;;;;;;6.00;5.50;;;;;;;;;;5060393;28;24860;-47
2022/07/02 00:26:48;;;;;;;6.00;5.50;;;;;;;;;;5064805;28;24976;-48
2022/07/02 00:29:14;;;;;;;6.27;5.80;;;;;;;;;;5064005;28;24421;-47
2022/07/02 00:31:39;;;;;;;6.50;6.00;;;;;;;;;;5064863;28;24510;-47
2022/07/02 00:34:08;;;;;;;6.30;5.90;;;;;;;;;;5061941;28;24517;-47
2022/07/02 00:36:33;;;;;;;6.40;5.90;;;;;;;;;;5073211;28;24421;-47
2022/07/02 00:39:00;;;;;;;6.40;5.90;;;;;;;;;;5074561;28;24419;-47
2022/07/02 00:41:26;;;;;;;7.28;6.68;;;;;;;;;;5062812;28;24560;-47
2022/07/02 00:43:52;;;;;;;6.60;6.10;;;;;;;;;;5059264;28;24434;-47
2022/07/02 00:46:17;;;;;;;6.70;6.20;;;;;;;;;;5064021;28;24431;-47
2022/07/02 00:48:43;;;;;;;8.70;8.00;;;;;;;;;;5065222;28;24526;-47
2022/07/02 00:51:08;;;;;;;9.07;7.17;;;;;;;;;;5061333;28;24833;-47
2022/07/02 00:53:35;;;;;;;6.50;6.00;;;;;;;;;;5074654;28;21295;-47
2022/07/02 00:56:00;;;;;;;7.10;6.60;;;;;;;;;;5067299;28;24799;-47
2022/07/02 00:58:28;;;;;;;7.00;6.50;;;;;;;;;;5070338;28;24449;-47
2022/07/02 01:00:53;;;;;;;7.70;7.10;;;;;;;;;;5072910;28;24525;-47
2022/07/02 01:03:20;;;;;;;8.73;8.02;;;;;;;;;;5062989;28;24514;-47
2022/07/02 01:05:47;;;;;;;7.57;6.97;;;;;;;;;;5070378;28;24426;-47
2022/07/02 01:10:59;;;;;;;6.65;6.15;;;;;;;;;;5068998;28;24426;-48
2022/07/02 01:13:25;;;;;;;6.00;5.60;;;;;;;;;;5064875;28;24422;-48
2022/07/02 01:15:50;;;;;;;5.95;5.55;;;;;;;;;;5063355;28;24540;-48
2022/07/02 01:18:17;;;;;;;5.55;5.15;;;;;;;;;;5064971;28;24948;-48
2022/07/02 01:20:43;;;;;;;5.70;5.30;;;;;;;;;;5078534;28;24517;-47
2022/07/02 01:23:08;;;;;;;6.10;5.60;;;;;;;;;;5067973;28;24549;-47
2022/07/02 01:25:33;;;;;;;5.90;5.40;;;;;;;;;;5060205;28;24422;-48
2022/07/02 01:27:58;;;;;;;5.13;4.80;;;;;;;;;;5072342;28;25004;-47
2022/07/02 01:30:23;;;;;;;5.53;5.13;;;;;;;;;;5073943;28;24423;-47
2022/07/02 01:32:48;;;;;;;5.30;4.90;;;;;;;;;;5062695;28;24437;-47
2022/07/02 01:35:14;;;;;;;4.82;4.53;;;;;;;;;;5070984;28;24414;-47
2022/07/02 01:37:39;;;;;;;4.70;4.30;;;;;;;;;;5058455;28;24419;-48
2022/07/02 01:40:05;;;;;;;4.33;4.03;;;;;;;;;;5055351;28;24965;-47
2022/07/02 01:42:30;;;;;;;4.65;4.35;;;;;;;;;;5067187;28;24505;-47
2022/07/02 01:44:55;;;;;;;4.70;4.40;;;;;;;;;;5078273;28;24439;-47
2022/07/02 01:47:20;;;;;;;4.90;4.50;;;;;;;;;;5069792;28;24978;-47
2022/07/02 01:49:45;;;;;;;5.20;4.80;;;;;;;;;;5066383;28;24426;-47
2022/07/02 01:52:12;;;;;;;4.73;4.43;;;;;;;;;;5076378;28;24422;-47
2022/07/02 01:54:38;;;;;;;4.60;4.30;;;;;;;;;;5049461;28;24427;-47
2022/07/02 01:57:03;;;;;;;4.80;4.50;;;;;;;;;;5057822;28;24426;-47
2022/07/02 01:59:28;;;;;;;5.27;4.87;;;;;;;;;;5062960;28;24838;-47
2022/07/02 02:01:54;;;;;;;5.27;4.87;;;;;;;;;;5076474;28;24465;-47
2022/07/02 02:04:19;;;;;;;4.90;4.60;;;;;;;;;;5070374;28;24466;-47
2022/07/02 02:06:44;;;;;;;5.40;5.00;;;;;;;;;;5053494;28;24511;-47
2022/07/02 02:09:09;;;;;;;5.00;4.70;;;;;;;;;;5052025;28;24418;-47
2022/07/02 02:11:34;;;;;;;4.90;4.60;;;;;;;;;;5070426;28;24422;-47
2022/07/02 02:13:59;;;;;;;5.20;4.80;;;;;;;;;;5071632;28;24414;-47
2022/07/02 02:16:25;;;;;;;6.20;5.80;;;;;;;;;;5069098;28;24483;-47
2022/07/02 02:18:50;;;;;;;5.70;5.30;;;;;;;;;;5070134;28;24421;-47
2022/07/02 02:21:16;;;;;;;5.00;4.60;;;;;;;;;;5065481;28;24449;-47
2022/07/02 02:23:41;;;;;;;5.20;4.80;;;;;;;;;;5072529;28;24477;-48
2022/07/02 02:26:06;;;;;;;5.30;4.90;;;;;;;;;;5064160;28;24444;-47
2022/07/02 02:28:31;;;;;;;5.25;4.85;;;;;;;;;;5072371;28;24828;-47
2022/07/02 02:30:56;;;;;;;4.90;4.50;;;;;;;;;;5064766;28;25254;-48
2022/07/02 02:33:21;;;;;;;5.28;4.88;;;;;;;;;;5067064;28;24425;-47
2022/07/02 02:35:46;;;;;;;5.90;5.40;;;;;;;;;;5047608;28;24450;-47
2022/07/02 02:38:12;;;;;;;5.55;5.15;;;;;;;;;;5066509;28;24507;-47
2022/07/02 02:40:37;;;;;;;6.15;5.75;;;;;;;;;;5047849;28;24431;-47
2022/07/02 02:43:02;;;;;;;7.05;6.45;;;;;;;;;;5060927;28;24817;-47
2022/07/02 02:45:27;;;;;;;6.70;6.20;;;;;;;;;;5063271;28;24524;-47
2022/07/02 02:47:52;;;;;;;5.75;5.35;;;;;;;;;;5069452;28;24812;-47
2022/07/02 02:50:17;;;;;;;7.07;6.55;;;;;;;;;;5051293;28;24822;-47
2022/07/02 02:52:43;;;;;;;6.50;6.10;;;;;;;;;;5062831;28;24544;-47
2022/07/02 02:55:08;;;;;;;7.25;6.75;;;;;;;;;;5060059;28;24431;-47
2022/07/02 02:57:33;;;;;;;6.60;6.10;;;;;;;;;;5065544;28;24822;-47
2022/07/02 02:59:58;;;;;;;7.50;7.00;;;;;;;;;;5060757;28;24433;-48
2022/07/02 03:02:23;;;;;;;6.60;6.10;;;;;;;;;;5072873;28;24959;-47
2022/07/02 03:04:48;;;;;;;5.73;5.33;;;;;;;;;;5068224;28;24503;-47
2022/07/02 03:07:13;;;;;;;6.10;5.70;;;;;;;;;;5073206;28;24518;-47
2022/07/02 03:09:39;;;;;;;6.55;6.15;;;;;;;;;;5048682;28;24557;-47
2022/07/02 03:12:04;;;;;;;5.90;5.50;;;;;;;;;;5058831;28;24407;-47
2022/07/02 03:14:29;;;;;;;6.60;6.10;;;;;;;;;;5064403;28;24426;-47
2022/07/02 03:16:54;;;;;;;7.45;6.85;;;;;;;;;;5062665;28;24537;-48
2022/07/02 03:19:19;;;;;;;6.90;6.35;;;;;;;;;;5061235;28;24449;-48
2022/07/02 03:21:44;;;;;;;7.10;6.53;;;;;;;;;;5052105;28;24433;-47
2022/07/02 03:24:09;;;;;;;7.90;7.30;;;;;;;;;;5067275;28;25056;-48
2022/07/02 03:26:35;;;;;;;7.00;6.50;;;;;;;;;;5073731;28;24423;-48
2022/07/02 03:29:00;;;;;;;6.40;5.90;;;;;;;;;;5065941;28;24414;-48
2022/07/02 03:31:25;;;;;;;6.13;5.73;;;;;;;;;;5063892;28;25063;-47
2022/07/02 03:33:50;;;;;;;6.10;5.70;;;;;;;;;;5067378;28;24419;-48
2022/07/02 03:36:15;;;;;;;6.28;5.85;;;;;;;;;;5077400;28;24546;-47
2022/07/02 03:38:40;;;;;;;6.40;5.97;;;;;;;;;;5077937;28;24879;-48
2022/07/02 03:41:08;;;;;;;5.75;5.35;;;;;;;;;;5062136;28;24801;-48
2022/07/02 03:43:34;;;;;;;5.97;5.57;;;;;;;;;;5054759;28;24434;-48
2022/07/02 03:46:00;;;;;;;5.50;5.10;;;;;;;;;;5066184;28;24437;-47
2022/07/02 03:48:25;;;;;;;5.00;4.60;;;;;;;;;;5063343;28;24414;-47
2022/07/02 03:50:50;;;;;;;5.38;4.97;;;;;;;;;;5068413;28;24472;-47
2022/07/02 03:53:15;;;;;;;4.93;4.60;;;;;;;;;;5057229;28;24825;-47
2022/07/02 03:55:41;;;;;;;5.50;5.10;;;;;;;;;;5059939;28;24480;-47
2022/07/02 03:58:06;;;;;;;6.18;5.68;;;;;;;;;;5064451;28;25311;-48
2022/07/02 04:00:31;;;;;;;4.90;4.60;;;;;;;;;;5079297;28;24619;-48
2022/07/02 04:02:56;;;;;;;4.90;4.50;;;;;;;;;;5071060;28;24410;-48
2022/07/02 04:05:21;;;;;;;5.33;4.93;;;;;;;;;;5053016;28;24438;-47
2022/07/02 04:07:46;;;;;;;5.80;5.30;;;;;;;;;;5062015;28;24514;-48
2022/07/02 04:10:11;;;;;;;5.93;5.53;;;;;;;;;;5075072;28;24438;-48
2022/07/02 04:12:37;;;;;;;5.80;5.40;;;;;;;;;;5050912;28;24770;-47
2022/07/02 04:15:02;;;;;;;5.50;5.10;;;;;;;;;;5046432;28;24453;-47
2022/07/02 04:17:28;;;;;;;5.60;4.90;;;;;;;;;;5060157;28;24439;-48
2022/07/02 04:19:53;;;;;;;5.45;4.95;;;;;;;;;;5058303;28;24493;-48
2022/07/02 04:22:18;;;;;;;5.10;4.70;;;;;;;;;;5053994;28;24411;-48
2022/07/02 04:24:43;;;;;;;6.30;5.25;;;;;;;;;;5071213;28;24465;-48
2022/07/02 04:27:09;;;;;;;5.07;4.68;;;;;;;;;;5050864;28;24430;-48
2022/07/02 04:29:34;;;;;;;4.90;4.50;;;;;;;;;;5053874;28;25091;-48
2022/07/02 04:31:59;;;;;;;5.65;5.15;;;;;;;;;;5070451;28;24426;-45
2022/07/02 04:34:24;;;;;;;4.90;4.50;;;;;;;;;;5073749;28;24407;-45
2022/07/02 04:37:19;;;;;;;4.80;4.50;;;;;;;;;;5050149;28;24415;-50
2022/07/02 04:39:45;;;;;;;5.28;4.88;;;;;;;;;;5022767;28;24540;-46
2022/07/02 04:42:10;;;;;;;5.40;4.90;;;;;;;;;;5060585;28;24430;-47
2022/07/02 04:44:35;;;;;;;5.00;4.60;;;;;;;;;;5060134;28;24427;-48
2022/07/02 04:47:00;;;;;;;4.67;4.30;;;;;;;;;;5072222;28;24687;-47
2022/07/02 04:49:26;;;;;;;5.13;4.72;;;;;;;;;;5064563;28;24410;-47
2022/07/02 04:51:51;;;;;;;6.67;5.23;;;;;;;;;;5065801;28;24446;-48
2022/07/02 04:54:16;;;;;;;4.70;4.30;;;;;;;;;;5073391;28;24456;-47
2022/07/02 04:56:41;;;;;;;4.72;4.32;;;;;;;;;;5067217;28;24770;-48
2022/07/02 04:59:06;;;;;;;4.55;4.25;;;;;;;;;;5059371;28;24509;-47
2022/07/02 05:01:31;;;;;;;4.30;4.00;;;;;;;;;;5062789;28;24468;-46
2022/07/02 05:03:56;;;;;;;4.20;3.70;;;;;;;;;;5064533;28;24877;-47
2022/07/02 05:06:22;;;;;;;4.40;4.10;;;;;;;;;;5064813;28;24418;-47
2022/07/02 05:08:48;;;;;;;4.78;4.07;;;;;;;;;;5065528;28;24445;-47
2022/07/02 05:11:15;;;;;;;4.28;3.88;;;;;;;;;;5082974;28;24514;-48
2022/07/02 05:13:41;;;;;;;4.50;4.10;;;;;;;;;;5067631;28;24448;-47
2022/07/02 05:16:06;;;;;;;4.20;3.90;;;;;;;;;;5054406;28;24424;-48
2022/07/02 05:18:31;;;;;;;5.22;4.82;;;;;;;;;;5050783;28;24960;-49
2022/07/02 05:20:56;;;;;;;3.80;3.50;;;;;;;;;;5071408;28;24426;-48
2022/07/02 05:23:21;;;;;;;3.92;3.63;;;;;;;;;;5064696;28;24518;-47
2022/07/02 05:25:46;;;;;;;3.53;3.22;;;;;;;;;;5079831;28;24423;-48
2022/07/02 05:28:11;;;;;;;3.50;3.30;;;;;;;;;;5061400;28;24435;-47
2022/07/02 05:30:37;;;;;;;3.55;3.35;;;;;;;;;;5063091;28;24414;-47
2022/07/02 05:33:02;;;;;;;3.65;3.35;;;;;;;;;;5055850;28;24477;-48
2022/07/02 05:35:27;;;;;;;2.90;2.70;;;;;;;;;;5073252;28;24405;-48
2022/07/02 05:37:52;;;;;;;2.93;2.73;;;;;;;;;;5060436;28;25437;-47
2022/07/02 05:40:18;;;;;;;3.20;3.00;;;;;;;;;;5065660;28;25171;-47
2022/07/02 05:42:43;;;;;;;3.30;3.00;;;;;;;;;;5058661;28;25279;-47
2022/07/02 05:45:10;;;;;;;3.05;2.85;;;;;;;;;;5071365;28;25025;-48
2022/07/02 05:47:35;;;;;;;3.10;2.90;;;;;;;;;;5065382;28;24422;-48
2022/07/02 05:50:00;;;;;;;3.10;2.90;;;;;;;;;;5070642;28;25002;-48
2022/07/02 05:52:25;;;;;;;3.00;2.80;;;;;;;;;;5067112;28;24441;-48
2022/07/02 05:54:50;;;;;;;2.70;2.50;;;;;;;;;;5081223;28;24414;-48
2022/07/02 05:57:15;;;;;;;3.07;2.87;;;;;;;;;;5086108;28;24460;-48
2022/07/02 05:59:41;;;;;;;3.50;2.70;;;;;;;;;;5083035;28;24899;-48
2022/07/02 06:02:06;;;;;;;2.53;2.40;;;;;;;;;;5080147;28;24413;-48
2022/07/02 06:04:32;;;;;;;2.70;2.30;;;;;;;;;;5079946;28;24415;-48
2022/07/02 06:09:41;;;;;;;2.50;2.30;;;;;;;;;;5061810;28;24982;-47
2022/07/02 06:12:07;;;;;;;3.08;2.88;;;;;;;;;;5068991;28;24395;-47
2022/07/02 06:14:33;;;;;;;3.00;2.80;;;;;;;;;;5068155;28;24812;-48
2022/07/02 06:16:58;;;;;;;2.87;2.67;;;;;;;;;;5058621;28;24422;-46
2022/07/02 06:19:23;;;;;;;2.30;2.20;;;;;;;;;;5063971;28;24430;-47
2022/07/02 06:21:49;;;;;;;2.60;2.40;;;;;;;;;;5053044;28;24427;-48
2022/07/02 06:24:14;;;;;;;3.20;3.00;;;;;;;;;;5066622;28;24585;-46
2022/07/02 06:26:39;;;;;;;3.60;3.40;;;;;;;;;;5071690;28;24782;-48
2022/07/02 06:29:05;;;;;;;2.83;2.63;;;;;;;;;;5055874;28;24411;-47
2022/07/02 06:31:30;;;;;;;2.60;2.40;;;;;;;;;;5069250;28;24797;-47
2022/07/02 06:33:55;;;;;;;2.40;2.30;;;;;;;;;;5060993;28;24508;-48
2022/07/02 06:36:22;;;;;;;3.10;2.90;;;;;;;;;;5059223;28;24433;-47
2022/07/02 06:38:48;;;;;;;2.90;2.70;;;;;;;;;;5065895;28;24426;-48
2022/07/02 06:43:57;;;;;;;2.45;2.35;;;;;;;;;;5068302;28;24492;-47
2022/07/02 06:46:22;;;;;;;2.77;2.57;;;;;;;;;;5060418;28;24434;-47
2022/07/02 06:48:47;;;;;;;2.30;2.20;;;;;;;;;;5062853;28;24742;-47
2022/07/02 06:51:12;;;;;;;2.80;2.60;;;;;;;;;;5080940;28;24421;-47
2022/07/02 06:53:37;;;;;;;3.20;2.90;;;;;;;;;;5072218;28;24423;-47
2022/07/02 06:56:03;;;;;;;3.22;2.92;;;;;;;;;;5052713;28;24485;-46
2022/07/02 06:58:28;;;;;;;3.20;3.00;;;;;;;;;;5070625;28;24460;-47
2022/07/02 07:00:53;;;;;;;2.50;2.30;;;;;;;;;;5065055;28;24419;-47
2022/07/02 07:03:18;;;;;;;3.00;2.80;;;;;;;;;;5084957;28;24988;-47
2022/07/02 07:05:46;;;;;;;2.83;2.63;;;;;;;;;;5067960;28;24441;-47
2022/07/02 07:08:11;;;;;;;2.53;2.33;;;;;;;;;;5065236;28;24434;-47
2022/07/02 07:10:36;;;;;;;2.58;2.40;;;;;;;;;;5064413;28;24731;-48
2022/07/02 07:13:02;;;;;;;2.88;2.67;;;;;;;;;;5064619;28;24984;-47
2022/07/02 07:15:27;;;;;;;3.20;3.00;;;;;;;;;;5056858;28;24593;-48
2022/07/02 07:17:52;;;;;;;3.10;2.80;;;;;;;;;;5047468;28;24390;-47
2022/07/02 07:20:19;;;;;;;2.65;2.45;;;;;;;;;;5048250;28;25216;-48
2022/07/02 07:22:44;;;;;;;3.20;2.55;;;;;;;;;;5067639;28;24837;-48
2022/07/02 07:25:09;;;;;;;2.77;2.57;;;;;;;;;;5066515;28;24504;-48
2022/07/02 07:27:34;;;;;;;2.50;2.20;;;;;;;;;;5067662;28;24398;-47
2022/07/02 07:30:00;;;;;;;2.10;2.00;;;;;;;;;;5067466;28;24499;-48
2022/07/02 07:32:25;;;;;;;2.80;2.60;;;;;;;;;;5064990;28;24492;-47
2022/07/02 07:34:50;;;;;;;2.63;2.43;;;;;;;;;;5066364;28;24769;-48
2022/07/02 07:37:15;;;;;;;2.60;2.40;;;;;;;;;;5066207;28;24414;-46
2022/07/02 07:39:40;;;;;;;3.27;2.97;;;;;;;;;;5067387;28;24442;-46
2022/07/02 07:42:06;;;;;;;2.90;2.70;;;;;;;;;;5063161;28;24786;-47
2022/07/02 07:44:32;;;;;;;3.00;2.70;;;;;;;;;;5065745;28;24854;-46
2022/07/02 07:46:57;;;;;;;3.20;3.00;;;;;;;;;;5067096;28;24833;-48
2022/07/02 07:49:22;;;;;;;3.20;2.90;;;;;;;;;;5064760;28;24984;-47
2022/07/02 07:51:47;;;;;;;2.60;2.40;;;;;;;;;;5067205;28;24898;-48
2022/07/02 07:54:12;;;;;;;3.30;3.00;;;;;;;;;;5064706;28;24504;-48
2022/07/02 07:56:41;;;;;;;3.70;3.40;;;;;;;;;;5067068;28;24415;-48
2022/07/02 07:59:06;;;;;;;3.45;3.20;;;;;;;;;;5066748;28;24391;-49
2022/07/02 08:01:31;;;;;;;3.38;2.78;;;;;;;;;;5066904;28;24448;-49
2022/07/02 08:03:57;;;;;;;3.20;2.90;;;;;;;;;;5064687;28;24407;-48
2022/07/02 08:06:22;;;;;;;2.97;2.78;;;;;;;;;;5066755;28;24413;-48
2022/07/02 08:08:47;;;;;;;3.40;3.10;;;;;;;;;;5066615;28;24737;-48
2022/07/02 08:11:12;;;;;;;2.50;2.30;;;;;;;;;;5064992;28;24419;-48
2022/07/02 08:13:37;;;;;;;3.05;2.83;;;;;;;;;;5064270;28;24415;-49
2022/07/02 08:16:03;;;;;;;3.10;2.90;;;;;;;;;;5066632;28;24475;-47
2022/07/02 08:18:29;;;;;;;2.70;2.50;;;;;;;;;;5066497;28;24482;-49
2022/07/02 08:20:54;;;;;;;3.10;2.90;;;;;;;;;;5066374;28;24501;-48
2022/07/02 08:23:19;;;;;;;3.17;2.97;;;;;;;;;;5066421;28;24390;-48
2022/07/02 08:25:44;;;;;;;2.70;2.50;;;;;;;;;;5065093;28;24968;-49
2022/07/02 08:28:09;;;;;;;2.70;2.50;;;;;;;;;;5065973;28;24453;-49
2022/07/02 08:30:35;;;;;;;3.17;2.70;;;;;;;;;;5064389;28;25062;-47
2022/07/02 08:33:00;;;;;;;2.80;2.60;;;;;;;;;;5063324;28;24475;-47
2022/07/02 08:35:25;;;;;;;2.40;2.20;;;;;;;;;;5066072;28;24545;-47
2022/07/02 08:37:50;;;;;;;2.30;2.10;;;;;;;;;;5066299;28;24383;-47
2022/07/02 08:40:16;;;;;;;1.97;1.87;;;;;;;;;;5065888;28;24959;-47
2022/07/02 08:42:42;;;;;;;2.70;2.50;;;;;;;;;;5063531;28;24410;-48
2022/07/02 08:45:09;;;;;;;2.40;2.20;;;;;;;;;;5063975;28;24423;-48
2022/07/02 08:47:35;;;;;;;2.20;2.10;;;;;;;;;;5065683;28;24429;-49
2022/07/02 08:50:00;;;;;;;2.60;2.40;;;;;;;;;;5065892;28;24403;-48
2022/07/02 08:52:26;;;;;;;2.90;2.33;;;;;;;;;;5066182;28;24395;-48
2022/07/02 08:54:52;;;;;;;2.45;2.25;;;;;;;;;;5065987;28;24505;-47
2022/07/02 08:57:19;;;;;;;2.55;2.35;;;;;;;;;;5063954;28;25080;-48
2022/07/02 08:59:44;;;;;;;2.20;2.10;;;;;;;;;;5060011;28;24801;-48
2022/07/02 09:02:11;;;;;;;2.00;1.90;;;;;;;;;;5045350;28;24964;-47
2022/07/02 09:04:39;;;;;;;2.60;2.40;;;;;;;;;;5045362;28;24411;-48
2022/07/02 09:07:04;;;;;;;2.50;2.30;;;;;;;;;;5050218;28;24804;-48
2022/07/02 09:09:30;;;;;;;2.73;2.53;;;;;;;;;;5058720;28;24422;-48
2022/07/02 09:11:56;;;;;;;2.72;2.53;;;;;;;;;;5044557;28;24450;-47
2022/07/02 09:14:21;;;;;;;2.50;2.30;;;;;;;;;;5044508;28;24427;-47
2022/07/02 09:16:47;;;;;;;2.10;1.90;;;;;;;;;;5045153;28;24433;-47
2022/07/02 09:19:12;;;;;;;2.20;2.10;;;;;;;;;;5058470;28;24411;-47
2022/07/02 09:21:48;;;;;;;1.90;1.80;;;;;;;;;;5044459;28;24392;-48
2022/07/02 09:24:14;;;;;;;2.60;2.00;;;;;;;;;;5052519;28;24858;-48
2022/07/02 09:26:39;;;;;;;2.00;1.90;;;;;;;;;;5069825;28;24454;-47
2022/07/02 09:29:04;;;;;;;2.57;2.37;;;;;;;;;;5064519;28;24999;-47
2022/07/02 09:31:46;;;;;;;2.23;2.00;;;;;;;;;;5075614;28;24413;-47
2022/07/02 09:34:22;;;;;;;2.40;2.20;;;;;;;;;;5077858;28;24418;-47
2022/07/02 09:36:47;;;;;;;2.73;2.53;;;;;;;;;;5071201;28;24505;-49
2022/07/02 09:39:12;;;;;;;2.20;2.10;;;;;;;;;;5078502;28;24885;-49
2022/07/02 09:41:42;;;;;;;2.40;2.30;;;;;;;;;;5074646;28;24421;-49
2022/07/02 09:44:07;;;;;;;2.90;2.40;;;;;;;;;;5060461;28;24416;-51
2022/07/02 09:46:32;;;;;;;2.40;2.20;;;;;;;;;;5056511;28;24442;-49
2022/07/02 09:49:07;;;;;;;2.50;2.20;;;;;;;;;;5070370;28;24445;-48
2022/07/02 09:51:33;;;;;;;2.30;2.10;;;;;;;;;;5068920;28;24438;-46
2022/07/02 09:53:58;;;;;;;1.70;1.60;;;;;;;;;;5071591;28;24454;-49
2022/07/02 09:56:23;;;;;;;2.53;2.00;;;;;;;;;;5068926;28;24414;-46
2022/07/02 09:58:49;;;;;;;2.00;1.90;;;;;;;;;;5072008;28;24440;-49
2022/07/02 10:01:18;;;;;;;2.60;2.40;;;;;;;;;;5068773;28;24446;-49
2022/07/02 10:03:51;;;;;;;2.20;2.10;;;;;;;;;;5072278;28;24887;-48
2022/07/02 10:06:16;;;;;;;1.90;1.80;;;;;;;;;;5065551;28;24406;-49
2022/07/02 10:08:42;;;;;;;2.00;1.90;;;;;;;;;;5064906;28;24397;-50
2022/07/02 10:11:08;;;;;;;2.27;2.03;;;;;;;;;;5064476;28;24467;-47
2022/07/02 10:13:35;;;;;;;2.20;2.00;;;;;;;;;;5074405;28;25102;-47
2022/07/02 10:16:02;;;;;;;2.40;2.30;;;;;;;;;;5064623;28;24463;-47
2022/07/02 10:18:28;;;;;;;2.10;2.00;;;;;;;;;;5063204;28;24760;-47
2022/07/02 10:21:00;;;;;;;2.10;2.00;;;;;;;;;;5061621;28;25062;-47
2022/07/02 10:23:25;;;;;;;1.90;1.70;;;;;;;;;;5045183;28;24817;-47
2022/07/02 10:25:51;;;;;;;2.30;2.10;;;;;;;;;;5055169;28;25039;-48
2022/07/02 10:28:16;;;;;;;2.20;2.00;;;;;;;;;;5054291;28;25171;-47
2022/07/02 10:30:42;;;;;;;2.97;2.10;;;;;;;;;;5083044;28;24601;-47
2022/07/02 10:33:28;;;;;;;2.58;2.40;;;;;;;;;;5074954;28;24849;-47
2022/07/02 10:35:54;;;;;;;2.15;2.05;;;;;;;;;;5064873;28;24456;-47
2022/07/02 10:38:29;;;;;;;2.50;2.20;;;;;;;;;;5076826;28;24861;-47
2022/07/02 10:40:55;;;;;;;2.20;2.10;;;;;;;;;;5065458;28;24434;-48
2022/07/02 10:43:20;;;;;;;2.13;2.00;;;;;;;;;;5068594;28;24414;-48
2022/07/02 10:45:46;;;;;;;2.50;1.90;;;;;;;;;;5075574;28;24454;-47
2022/07/02 10:48:11;;;;;;;1.80;1.70;;;;;;;;;;5074968;28;24418;-47
2022/07/02 10:50:45;;;;;;;1.60;1.50;;;;;;;;;;5066182;28;24447;-49
2022/07/02 10:53:12;;;;;;;2.35;1.90;;;;;;;;;;5064165;28;24491;-47
2022/07/02 10:55:38;;;;;;;2.00;1.80;;;;;;;;;;5066390;28;24535;-47
2022/07/02 10:58:04;;;;;;;2.40;1.70;;;;;;;;;;5049871;28;24488;-46
2022/07/02 11:00:36;;;;;;;1.90;1.80;;;;;;;;;;5068286;28;25093;-46
2022/07/02 11:03:18;;;;;;;1.90;1.70;;;;;;;;;;5085425;28;24846;-48
2022/07/02 11:05:54;;;;;;;3.20;1.60;;;;;;;;;;5081250;28;24533;-47
2022/07/02 11:08:40;;;;;;;1.90;1.80;;;;;;;;;;5062907;28;25171;-47
2022/07/02 11:11:06;;;;;;;2.13;2.03;;;;;;;;;;5071369;28;24988;-48
2022/07/02 11:13:35;;;;;;;2.30;2.10;;;;;;;;;;5064356;28;24509;-47
2022/07/02 11:16:00;;;;;;;2.30;2.10;;;;;;;;;;5068450;28;24521;-47
2022/07/02 11:18:28;;;;;;;1.90;1.80;;;;;;;;;;5071733;28;24521;-47
2022/07/02 11:20:53;;;;;;;2.40;2.20;;;;;;;;;;5067995;28;24433;-47
2022/07/02 11:23:18;;;;;;;2.47;2.27;;;;;;;;;;5062338;28;24418;-47
2022/07/02 11:25:44;;;;;;;1.70;1.60;;;;;;;;;;5062593;28;24509;-47
2022/07/02 11:28:12;;;;;;;1.90;1.80;;;;;;;;;;5065573;28;24805;-47
2022/07/02 11:30:37;;;;;;;1.90;1.80;;;;;;;;;;5064579;28;24430;-47
2022/07/02 11:33:11;;;;;;;2.30;1.80;;;;;;;;;;5066779;28;24777;-47
2022/07/02 11:35:36;;;;;;;2.10;2.00;;;;;;;;;;5061008;28;24422;-46
2022/07/02 11:38:01;;;;;;;1.80;1.70;;;;;;;;;;5071329;28;24486;-48
2022/07/02 11:40:27;;;;;;;2.10;1.92;;;;;;;;;;5078544;28;24725;-47
2022/07/02 11:42:52;;;;;;;1.92;1.83;;;;;;;;;;5066684;28;25271;-47
2022/07/02 11:45:17;;;;;;;3.10;1.90;;;;;;;;;;5081563;28;24461;-47
2022/07/02 11:47:46;;;;;;;1.70;1.60;;;;;;;;;;5070217;28;24504;-47
2022/07/02 11:50:11;;;;;;;1.80;1.70;;;;;;;;;;5071205;28;25050;-47
2022/07/02 11:52:37;;;;;;;2.28;1.63;;;;;;;;;;5066895;28;24399;-48
2022/07/02 11:55:03;;;;;;;1.83;1.73;;;;;;;;;;5061256;28;24964;-47
2022/07/02 11:57:31;;;;;;;1.70;1.60;;;;;;;;;;5066776;28;24410;-48
2022/07/02 11:59:57;;;;;;;1.40;1.40;;;;;;;;;;5078470;28;24432;-48
2022/07/02 12:02:22;;;;;;;1.30;1.30;;;;;;;;;;5087270;28;24465;-47
2022/07/02 12:04:47;;;;;;;1.75;1.60;;;;;;;;;;5071370;28;24514;-48
2022/07/02 12:07:13;;;;;;;2.60;1.70;;;;;;;;;;5064179;28;24427;-47
2022/07/02 12:09:39;;;;;;;1.50;1.40;;;;;;;;;;5063073;28;24433;-47
2022/07/02 12:12:04;;;;;;;1.70;1.60;;;;;;;;;;5066647;28;24505;-47
2022/07/02 12:14:30;;;;;;;1.80;1.70;;;;;;;;;;5052554;28;24419;-47
2022/07/02 12:16:55;;;;;;;1.90;1.80;;;;;;;;;;5056250;28;25213;-47
2022/07/02 12:19:27;;;;;;;1.90;1.55;;;;;;;;;;5065243;28;25224;-49
2022/07/02 12:21:52;;;;;;;1.73;1.63;;;;;;;;;;5063168;28;25010;-48
2022/07/02 12:24:25;;;;;;;1.60;1.50;;;;;;;;;;5059929;28;24429;-48
2022/07/02 12:26:50;;;;;;;1.60;1.50;;;;;;;;;;5068422;28;24811;-48
2022/07/02 12:32:06;;;;;;;1.70;1.60;;;;;;;;;;5066004;28;25593;-48
2022/07/02 12:34:37;;;;;;;1.63;1.52;;;;;;;;;;5069905;28;24518;-47
2022/07/02 12:37:03;;;;;;;1.80;1.70;;;;;;;;;;5083487;28;24394;-47
2022/07/02 12:39:40;;;;;;;1.70;1.60;;;;;;;;;;5060753;28;24414;-47
2022/07/02 12:42:13;;;;;;;1.70;1.60;;;;;;;;;;5065896;28;24403;-48
2022/07/02 12:44:48;;;;;;;1.70;1.60;;;;;;;;;;5062603;28;24430;-48
2022/07/02 12:47:21;;;;;;;1.80;1.70;;;;;;;;;;5066055;28;24390;-47
2022/07/02 12:49:51;;;;;;;1.60;1.50;;;;;;;;;;5065784;28;25251;-47
2022/07/02 12:52:17;;;;;;;1.50;1.40;;;;;;;;;;5066242;28;24410;-47
2022/07/02 12:54:42;;;;;;;1.67;1.57;;;;;;;;;;5065811;28;24445;-48
2022/07/02 12:57:14;;;;;;;1.70;1.60;;;;;;;;;;5075174;28;24820;-48
2022/07/02 12:59:40;;;;;;;2.03;1.93;;;;;;;;;;5060851;28;24824;-47
2022/07/02 13:02:07;;;;;;;1.70;1.60;;;;;;;;;;5075924;28;24498;-48
2022/07/02 13:04:32;;;;;;;1.60;1.50;;;;;;;;;;5054677;28;24797;-46
2022/07/02 13:06:58;;;;;;;2.10;2.00;;;;;;;;;;5057755;28;24449;-47
2022/07/02 13:09:23;;;;;;;2.20;2.00;;;;;;;;;;5048787;28;24506;-47
2022/07/02 13:11:48;;;;;;;2.10;1.90;;;;;;;;;;5047394;28;24407;-47
2022/07/02 13:14:13;;;;;;;3.00;2.00;;;;;;;;;;5046598;28;24858;-47
2022/07/02 13:16:38;;;;;;;1.80;1.70;;;;;;;;;;5057682;28;24441;-47
2022/07/02 13:19:04;;;;;;;2.10;2.00;;;;;;;;;;5064009;28;25036;-47
2022/07/02 13:21:29;;;;;;;1.83;1.60;;;;;;;;;;5064916;28;24430;-47
2022/07/02 13:23:54;;;;;;;2.10;2.00;;;;;;;;;;5065764;28;24390;-48
2022/07/02 13:26:19;;;;;;;2.35;2.00;;;;;;;;;;5061657;28;24423;-47
2022/07/02 13:28:44;;;;;;;1.60;1.50;;;;;;;;;;5044146;28;24411;-47
2022/07/02 13:31:09;;;;;;;1.90;1.80;;;;;;;;;;5057420;28;24421;-46
2022/07/02 13:33:34;;;;;;;1.90;1.80;;;;;;;;;;5055790;28;24509;-48
2022/07/02 13:36:00;;;;;;;2.30;1.90;;;;;;;;;;5043690;28;24786;-47
2022/07/02 13:38:25;;;;;;;1.75;1.65;;;;;;;;;;5056941;28;24418;-48
2022/07/02 13:40:50;;;;;;;2.00;1.90;;;;;;;;;;5061925;28;24584;-48
2022/07/02 13:43:15;;;;;;;1.80;1.70;;;;;;;;;;5045561;28;24814;-47
2022/07/02 13:45:40;;;;;;;1.50;1.40;;;;;;;;;;5044735;28;24563;-47
2022/07/02 13:48:05;;;;;;;1.85;1.50;;;;;;;;;;5044789;28;24976;-47
2022/07/02 13:50:30;;;;;;;1.63;1.52;;;;;;;;;;5040870;28;24402;-48
2022/07/02 13:52:55;;;;;;;1.70;1.60;;;;;;;;;;5054432;28;24457;-47
2022/07/02 13:55:21;;;;;;;1.58;1.58;;;;;;;;;;5062809;28;24929;-47
2022/07/02 13:57:46;;;;;;;1.98;1.88;;;;;;;;;;5050616;28;24430;-47
2022/07/02 14:00:11;;;;;;;1.60;1.50;;;;;;;;;;5043178;28;24546;-47
2022/07/02 14:02:36;;;;;;;1.60;1.50;;;;;;;;;;5047551;28;24964;-47
2022/07/02 14:05:02;;;;;;;1.83;1.73;;;;;;;;;;5064280;28;24491;-47
2022/07/02 14:07:27;;;;;;;1.70;1.60;;;;;;;;;;5051932;28;24984;-47
2022/07/02 14:09:52;;;;;;;1.40;1.30;;;;;;;;;;5045005;28;24387;-48
2022/07/02 14:12:17;;;;;;;1.70;1.60;;;;;;;;;;5047292;28;24956;-47
2022/07/02 14:14:42;;;;;;;1.63;1.53;;;;;;;;;;5065617;28;24417;-47
2022/07/02 14:17:07;;;;;;;1.50;1.40;;;;;;;;;;5067506;28;24394;-47
2022/07/02 14:19:33;;;;;;;1.70;1.60;;;;;;;;;;5069194;28;24521;-49
2022/07/02 14:21:58;;;;;;;2.10;1.90;;;;;;;;;;5067044;28;24422;-48
2022/07/02 14:24:23;;;;;;;1.60;1.50;;;;;;;;;;5068531;28;24947;-49
2022/07/02 14:26:48;;;;;;;1.80;1.70;;;;;;;;;;5064542;28;24419;-48
2022/07/02 14:29:15;;;;;;;1.70;1.60;;;;;;;;;;5067671;28;25075;-49
2022/07/02 14:31:40;;;;;;;1.80;1.70;;;;;;;;;;5063442;28;24411;-49
2022/07/02 14:34:05;;;;;;;1.80;1.70;;;;;;;;;;5068507;28;24418;-48
2022/07/02 14:36:30;;;;;;;1.70;1.60;;;;;;;;;;5068538;28;24754;-48
2022/07/02 14:38:55;;;;;;;1.70;1.60;;;;;;;;;;5068458;28;24391;-49
2022/07/02 14:41:33;;;;;;;2.00;1.90;;;;;;;;;;5067838;28;24515;-48
2022/07/02 14:43:58;;;;;;;1.87;1.77;;;;;;;;;;5063695;28;25035;-49
2022/07/02 14:46:29;;;;;;;1.80;1.70;;;;;;;;;;5067215;28;25042;-48
2022/07/02 14:48:55;;;;;;;1.80;1.70;;;;;;;;;;5068031;28;24391;-48